Time;durP1;ratioP1;P1;durP2;ratioP2;P2;SDS_P1;SDS_P2;PMS_P1;PMS_P2;Temp;Humidity;BMP_temperature;BMP_pressure;BME280_temperature;BME280_humidity;BME280_pressure;Samples;Min_cycle;Max_cycle;Signal;HPM_P1;HPM_P2
2022/08/22 08:08:37;;;;;;;12.50;11.90;;;31.00;99.90;;;;;;6178278;23;20083;-93
2022/08/22 08:14:08;;;;;;;13.50;12.60;;;31.10;99.90;;;;;;6157752;23;20083;-91
2022/08/22 08:17:05;;;;;;;13.23;12.32;;;31.50;99.90;;;;;;6137519;23;20009;-91
2022/08/22 08:19:40;;;;;;;13.57;12.38;;;31.50;99.90;;;;;;6133145;23;20033;-94
2022/08/22 08:22:11;;;;;;;12.98;11.82;;;31.20;99.90;;;;;;6135297;23;20006;-93
2022/08/22 08:24:41;;;;;;;12.35;11.50;;;30.70;99.90;;;;;;6109552;23;20113;-93
2022/08/22 08:30:14;;;;;;;12.27;11.55;;;30.00;99.90;;;;;;6157310;23;20020;-92
2022/08/22 08:32:46;;;;;;;11.85;11.05;;;30.60;99.90;;;;;;6132313;23;20045;-92
2022/08/22 08:35:40;;;;;;;12.98;11.77;;;31.40;99.90;;;;;;6132547;23;20017;-91
2022/08/22 08:38:19;;;;;;;12.40;11.50;;;30.30;99.90;;;;;;6068674;23;20010;-91
2022/08/22 08:41:09;;;;;;;12.07;11.10;;;30.00;99.90;;;;;;6068758;23;20006;-93
2022/08/22 08:43:42;;;;;;;11.73;11.07;;;30.30;99.90;;;;;;6008619;23;20074;-92
2022/08/22 08:46:14;;;;;;;12.38;11.65;;;30.80;99.90;;;;;;6068558;23;20473;-93
2022/08/22 08:48:50;;;;;;;12.70;11.63;;;30.90;99.90;;;;;;6068231;23;20015;-92
2022/08/22 08:51:53;;;;;;;11.48;10.88;;;31.10;99.90;;;;;;6070055;23;20477;-93
2022/08/22 08:54:54;;;;;;;12.63;11.93;;;31.20;99.90;;;;;;6047818;23;20465;-91
2022/08/22 08:57:51;;;;;;;13.25;12.30;;;31.70;99.90;;;;;;6061486;23;20007;-92
2022/08/22 09:00:54;;;;;;;12.07;11.27;;;31.10;99.90;;;;;;6084381;23;20018;-91
2022/08/22 09:03:48;;;;;;;12.50;11.50;;;30.80;99.90;;;;;;6046154;23;20469;-92
2022/08/22 09:06:36;;;;;;;12.20;11.23;;;30.90;99.90;;;;;;6068354;23;20512;-91
2022/08/22 09:09:38;;;;;;;12.13;11.45;;;30.40;99.90;;;;;;6068407;23;20050;-93
2022/08/22 09:12:42;;;;;;;13.45;12.63;;;31.00;99.90;;;;;;6072698;23;20057;-93
2022/08/22 09:15:33;;;;;;;12.40;11.43;;;31.10;99.90;;;;;;6105301;23;20017;-92
2022/08/22 09:18:35;;;;;;;13.35;12.32;;;31.30;99.90;;;;;;6156791;23;20009;-92
2022/08/22 09:21:22;;;;;;;12.38;11.48;;;30.80;99.90;;;;;;6131949;23;20020;-91
2022/08/22 09:24:04;;;;;;;12.50;11.80;;;30.30;99.90;;;;;;6131614;23;20005;-90
2022/08/22 09:26:50;;;;;;;12.05;11.32;;;30.10;99.90;;;;;;6131762;23;20043;-94
2022/08/22 09:29:32;;;;;;;11.48;10.60;;;30.30;99.90;;;;;;6131701;23;20017;-93
2022/08/22 09:32:22;;;;;;;12.38;11.60;;;30.60;99.90;;;;;;6131881;23;20068;-92
2022/08/22 09:34:55;;;;;;;12.48;11.50;;;30.10;99.90;;;;;;6131562;23;20010;-92
2022/08/22 09:37:41;;;;;;;11.93;11.30;;;29.90;99.90;;;;;;6131759;23;20060;-93
2022/08/22 09:40:20;;;;;;;13.35;12.20;;;29.90;99.90;;;;;;6131914;23;20041;-92
2022/08/22 09:43:33;;;;;;;14.48;13.43;;;30.20;99.90;;;;;;6131688;23;20010;-93
2022/08/22 09:46:23;;;;;;;13.75;12.75;;;30.50;99.90;;;;;;6068025;23;20049;-92
2022/08/22 09:49:15;;;;;;;13.57;12.65;;;30.50;99.90;;;;;;6067643;23;20018;-94
2022/08/22 09:52:15;;;;;;;12.65;11.95;;;30.90;99.90;;;;;;6067474;23;20102;-93
2022/08/22 09:54:56;;;;;;;13.48;12.57;;;30.60;99.90;;;;;;6067388;23;20006;-93
2022/08/22 09:57:41;;;;;;;14.57;13.48;;;30.90;99.90;;;;;;6067820;23;20070;-93
2022/08/22 10:00:46;;;;;;;14.80;13.48;;;31.20;99.90;;;;;;6068173;23;20007;-92
2022/08/22 10:03:15;;;;;;;13.32;12.50;;;31.40;99.90;;;;;;6021444;23;20448;-93
2022/08/22 10:05:58;;;;;;;13.77;12.90;;;31.10;99.90;;;;;;6068100;23;20433;-93
2022/08/22 10:08:40;;;;;;;13.43;12.73;;;31.30;99.90;;;;;;6068445;23;20066;-92
2022/08/22 10:11:35;;;;;;;13.57;12.65;;;31.00;99.90;;;;;;6068258;23;20019;-93
2022/08/22 10:14:09;;;;;;;13.68;12.80;;;30.30;99.90;;;;;;6068209;23;20015;-93
2022/08/22 10:16:54;;;;;;;14.00;12.60;;;30.00;99.90;;;;;;6068026;23;20022;-92
2022/08/22 10:19:45;;;;;;;13.50;12.55;;;30.10;99.90;;;;;;6092663;23;20017;-93
2022/08/22 10:22:36;;;;;;;14.25;13.05;;;30.00;99.90;;;;;;6157327;23;20005;-93
2022/08/22 10:25:21;;;;;;;13.73;12.82;;;30.60;99.90;;;;;;6132433;23;20021;-92
2022/08/22 10:28:07;;;;;;;13.80;12.73;;;30.30;99.90;;;;;;6132512;23;20009;-93
2022/08/22 10:31:10;;;;;;;13.50;12.30;;;30.30;99.90;;;;;;6138778;23;20021;-93
2022/08/22 10:34:00;;;;;;;13.85;12.82;;;29.90;99.90;;;;;;6157322;23;20005;-93
2022/08/22 10:36:53;;;;;;;14.05;12.70;;;30.20;99.90;;;;;;6133538;23;20016;-93
2022/08/22 10:39:29;;;;;;;14.23;13.25;;;30.70;99.90;;;;;;6156015;23;20037;-94
2022/08/22 10:42:05;;;;;;;14.40;13.32;;;30.50;99.90;;;;;;6131347;23;20006;-94
2022/08/22 10:44:53;;;;;;;14.32;13.30;;;30.30;99.90;;;;;;6130845;23;20009;-93
2022/08/22 10:47:29;;;;;;;14.55;13.13;;;30.10;99.90;;;;;;6135078;23;20009;-92
2022/08/22 10:50:24;;;;;;;13.90;12.80;;;29.90;99.90;;;;;;6131451;23;20010;-94
2022/08/22 10:55:54;;;;;;;13.77;12.82;;;29.70;99.90;;;;;;6156306;23;20470;-93
2022/08/22 10:58:32;;;;;;;13.32;12.52;;;29.50;99.90;;;;;;6155715;23;20024;-93
2022/08/22 11:01:03;;;;;;;12.80;11.80;;;30.00;99.90;;;;;;6155783;23;20037;-92
2022/08/22 11:03:59;;;;;;;13.80;12.70;;;30.00;99.90;;;;;;6156081;23;20379;-92
2022/08/22 11:06:35;;;;;;;14.95;13.50;;;30.00;99.90;;;;;;6131620;23;20020;-93
2022/08/22 11:09:23;;;;;;;13.65;12.75;;;29.70;99.90;;;;;;6131556;23;20013;-93
2022/08/22 11:12:09;;;;;;;14.15;13.27;;;29.90;99.90;;;;;;6131479;23;20024;-94
2022/08/22 11:15:08;;;;;;;13.35;12.45;;;30.00;99.90;;;;;;6157643;23;20018;-94
2022/08/22 11:18:02;;;;;;;14.65;13.60;;;30.10;99.90;;;;;;6107063;23;20025;-93
2022/08/22 11:20:47;;;;;;;13.57;12.57;;;30.40;99.90;;;;;;6107680;23;20009;-93
2022/08/22 11:23:33;;;;;;;14.05;13.13;;;30.50;99.90;;;;;;6110384;23;20010;-92
2022/08/22 11:26:13;;;;;;;14.32;13.18;;;30.40;99.90;;;;;;6111877;23;20006;-92
2022/08/22 11:28:58;;;;;;;13.98;13.02;;;30.00;99.90;;;;;;6091588;23;20030;-93
2022/08/22 11:32:02;;;;;;;15.07;13.85;;;29.40;99.90;;;;;;6105993;23;20018;-94
2022/08/22 11:34:48;;;;;;;14.73;13.77;;;29.10;99.90;;;;;;6101690;23;20045;-91
2022/08/22 11:37:42;;;;;;;14.40;13.05;;;29.30;99.90;;;;;;6103456;23;20041;-93
2022/08/22 11:40:31;;;;;;;13.82;12.80;;;29.90;99.90;;;;;;6103470;23;20006;-94
2022/08/22 11:43:17;;;;;;;13.75;12.82;;;29.90;99.90;;;;;;6079443;23;20392;-92
2022/08/22 11:45:47;;;;;;;14.70;13.32;;;29.90;99.90;;;;;;6103174;23;20014;-93
2022/08/22 11:48:44;;;;;;;14.40;13.50;;;30.10;99.90;;;;;;6079622;23;20021;-92
2022/08/22 11:51:28;;;;;;;14.70;13.52;;;30.30;99.90;;;;;;6079589;23;20022;-93
2022/08/22 11:54:06;;;;;;;13.85;13.02;;;30.30;99.90;;;;;;6103117;23;20006;-93
2022/08/22 11:56:48;;;;;;;14.48;13.48;;;30.10;99.90;;;;;;6103337;23;20348;-92
2022/08/22 11:59:52;;;;;;;14.60;13.60;;;29.80;99.90;;;;;;6103328;23;20129;-92
2022/08/22 12:02:39;;;;;;;14.05;13.13;;;29.70;99.90;;;;;;6130439;23;20009;-94
2022/08/22 12:05:35;;;;;;;14.15;13.10;;;29.60;99.90;;;;;;6079114;23;20006;-93
2022/08/22 12:08:20;;;;;;;14.10;13.15;;;29.70;99.90;;;;;;6079219;23;20098;-91
2022/08/22 12:11:02;;;;;;;14.73;13.55;;;29.80;99.90;;;;;;6102785;23;20018;-91
2022/08/22 12:13:58;;;;;;;15.65;14.52;;;29.80;99.90;;;;;;6079271;23;20351;-91
2022/08/22 12:16:39;;;;;;;14.70;13.65;;;29.60;99.90;;;;;;6071304;23;20014;-92
2022/08/22 12:19:21;;;;;;;14.38;13.35;;;30.00;99.90;;;;;;6102561;23;20010;-92
2022/08/22 12:22:17;;;;;;;14.95;13.82;;;30.30;99.90;;;;;;6104249;23;20016;-92
2022/08/22 12:25:05;;;;;;;14.68;13.25;;;30.70;99.90;;;;;;6070581;23;20013;-90
2022/08/22 12:31:04;;;;;;;14.95;13.77;;;30.40;99.90;;;;;;6040563;23;20027;-94
2022/08/22 12:34:08;;;;;;;14.45;13.15;;;30.40;99.90;;;;;;6015667;23;20007;-91
2022/08/22 12:36:59;;;;;;;13.90;13.00;;;30.40;99.90;;;;;;6015909;23;20469;-92
2022/08/22 12:39:54;;;;;;;13.88;13.07;;;30.40;99.90;;;;;;6015496;23;20034;-91
2022/08/22 12:42:30;;;;;;;14.45;13.45;;;30.50;99.90;;;;;;6039711;23;20011;-93
2022/08/22 12:45:08;;;;;;;14.10;13.13;;;30.40;99.90;;;;;;6039544;23;20570;-91
2022/08/22 12:47:58;;;;;;;13.52;12.63;;;30.10;99.90;;;;;;6015974;23;20011;-92
2022/08/22 12:50:52;;;;;;;13.90;12.90;;;29.90;99.90;;;;;;6015825;23;20011;-94
2022/08/22 12:53:35;;;;;;;14.60;13.40;;;30.00;99.90;;;;;;6015735;23;20016;-94
2022/08/22 12:56:29;;;;;;;14.82;13.88;;;30.10;99.90;;;;;;6016196;23;20505;-93
2022/08/22 12:59:13;;;;;;;14.55;13.30;;;30.30;99.90;;;;;;6039666;23;20012;-92
2022/08/22 13:01:44;;;;;;;14.77;13.57;;;30.30;99.90;;;;;;6015576;23;20007;-93
2022/08/22 13:04:15;;;;;;;14.40;13.40;;;30.30;99.90;;;;;;6015549;23;20164;-92
2022/08/22 13:06:47;;;;;;;14.43;13.52;;;30.50;99.90;;;;;;6042527;23;20002;-91
2022/08/22 13:09:31;;;;;;;14.23;13.23;;;30.70;99.90;;;;;;6078050;23;20014;-92
2022/08/22 13:12:35;;;;;;;13.68;12.70;;;30.40;99.90;;;;;;6078212;23;20133;-96
2022/08/22 13:15:22;;;;;;;14.32;13.40;;;30.50;99.90;;;;;;6098263;23;20010;-93
2022/08/22 13:17:53;;;;;;;13.48;12.65;;;30.50;99.90;;;;;;6078098;23;20022;-90
2022/08/22 13:20:32;;;;;;;14.25;13.23;;;30.00;99.90;;;;;;6102514;23;20006;-91
2022/08/22 13:23:06;;;;;;;14.52;13.63;;;29.80;99.90;;;;;;6102317;23;20014;-93
2022/08/22 13:25:51;;;;;;;;;;;29.90;99.90;;;;;;6102723;23;20088;-92
2022/08/22 13:28:20;;;;;;;14.80;13.80;;;29.80;99.90;;;;;;6102200;23;19911;-94
2022/08/22 13:30:51;;;;;;;13.63;12.63;;;29.70;99.90;;;;;;6101839;23;20081;-92
2022/08/22 13:33:51;;;;;;;14.38;13.40;;;29.80;99.90;;;;;;6078213;23;20508;-92
2022/08/22 13:36:21;;;;;;;13.60;12.70;;;29.90;99.90;;;;;;5987476;23;20015;-92
2022/08/22 13:39:14;;;;;;;14.00;12.90;;;29.70;99.90;;;;;;5987216;23;20012;-93
2022/08/22 13:42:02;;;;;;;13.70;12.82;;;29.60;99.90;;;;;;5986702;23;20071;-91
2022/08/22 13:44:40;;;;;;;14.00;12.88;;;29.60;99.90;;;;;;5987303;23;20015;-92
2022/08/22 13:47:14;;;;;;;14.40;13.20;;;29.90;99.90;;;;;;5988900;23;20091;-93
2022/08/22 13:49:53;;;;;;;15.23;14.15;;;29.90;99.90;;;;;;5987053;23;20007;-91
2022/08/22 13:52:36;;;;;;;15.23;13.77;;;29.90;99.90;;;;;;5988176;23;20023;-94
2022/08/22 13:55:46;;;;;;;13.45;12.65;;;29.60;99.90;;;;;;5988122;23;20022;-93
2022/08/22 13:58:31;;;;;;;13.93;12.77;;;29.80;99.90;;;;;;5966073;23;20043;-95
2022/08/22 14:01:29;;;;;;;13.68;12.68;;;29.80;99.90;;;;;;5992704;23;20362;-92
2022/08/22 14:04:36;;;;;;;14.02;13.02;;;29.80;99.90;;;;;;5996584;23;20022;-95
2022/08/22 14:07:05;;;;;;;13.48;12.50;;;29.70;99.90;;;;;;5973851;23;20008;-93
2022/08/22 14:10:07;;;;;;;13.55;12.52;;;29.70;99.90;;;;;;5991258;23;20014;-93
2022/08/22 14:12:45;;;;;;;13.60;12.73;;;29.90;99.90;;;;;;6010361;23;20027;-93
2022/08/22 14:15:18;;;;;;;13.73;12.90;;;29.70;99.90;;;;;;6016395;23;20518;-93
2022/08/22 14:18:27;;;;;;;14.23;13.25;;;29.40;99.90;;;;;;6029314;23;20031;-93
2022/08/22 14:21:25;;;;;;;12.98;12.18;;;29.30;99.90;;;;;;6045578;23;20014;-93
2022/08/22 14:24:10;;;;;;;14.15;12.98;;;29.50;99.90;;;;;;5992904;23;20438;-93
2022/08/22 14:27:00;;;;;;;13.15;12.35;;;29.80;99.90;;;;;;6016089;23;20011;-93
2022/08/22 14:29:54;;;;;;;14.20;13.00;;;29.90;99.90;;;;;;5992945;23;20039;-95
2022/08/22 14:32:35;;;;;;;13.80;12.88;;;29.90;99.90;;;;;;6011630;23;20059;-94
2022/08/22 14:35:32;;;;;;;12.65;11.85;;;29.70;99.90;;;;;;5992396;23;20400;-95
2022/08/22 14:38:42;;;;;;;13.00;12.10;;;29.50;99.90;;;;;;5906070;24;20013;-93
2022/08/22 14:41:32;;;;;;;12.65;11.85;;;29.00;99.90;;;;;;5903906;24;20021;-93
2022/08/22 14:44:13;;;;;;;12.50;11.57;;;29.00;99.90;;;;;;5928297;24;20010;-93
2022/08/22 14:47:25;;;;;;;12.40;11.70;;;29.30;99.90;;;;;;5966666;23;20011;-92
2022/08/22 14:49:54;;;;;;;12.10;11.27;;;29.00;99.90;;;;;;5986959;23;20094;-92
2022/08/22 14:53:40;;;;;;;12.55;11.70;;;29.00;99.90;;;;;;5988779;23;20023;-94
2022/08/22 14:56:29;;;;;;;13.00;11.90;;;29.30;99.90;;;;;;5981329;23;20016;-94
2022/08/22 14:59:13;;;;;;;11.70;11.00;;;29.10;99.90;;;;;;5986953;23;20075;-93
2022/08/22 15:02:00;;;;;;;12.60;11.85;;;29.00;99.90;;;;;;5992476;23;20063;-95
2022/08/22 15:04:54;;;;;;;12.63;11.80;;;28.90;99.90;;;;;;5987116;23;20076;-94
2022/08/22 15:07:31;;;;;;;12.88;12.18;;;28.80;99.90;;;;;;5983709;23;20015;-92
2022/08/22 15:10:06;;;;;;;12.93;11.80;;;28.80;99.90;;;;;;5987453;23;20015;-91
2022/08/22 15:12:44;;;;;;;12.57;11.77;;;28.70;99.90;;;;;;5988009;23;20509;-94
2022/08/22 15:15:33;;;;;;;12.18;11.30;;;28.70;99.90;;;;;;6065816;23;20140;-91
